sensor_id;sensor_type;location;lat;lon;timestamp;pressure;altitude;pressure_sealevel;temperature;humidity
33155;BME280;19511;42.682;23.332;2022-07-03T18:31:45;95308.75;;;25.66;100.00
33155;BME280;19511;42.682;23.332;2022-07-03T18:34:11;95305.84;;;25.55;100.00
33155;BME280;19511;42.682;23.332;2022-07-03T18:36:37;95311.22;;;25.53;100.00
33155;BME280;19511;42.682;23.332;2022-07-03T18:39:03;95308.63;;;25.49;100.00
33155;BME280;19511;42.682;23.332;2022-07-03T18:41:28;95314.03;;;25.47;100.00
33155;BME280;19511;42.682;23.332;2022-07-03T18:44:14;95313.53;;;25.49;100.00
33155;BME280;19511;42.682;23.332;2022-07-03T18:46:39;95325.09;;;25.45;100.00
33155;BME280;19511;42.682;23.332;2022-07-03T18:49:05;95329.31;;;25.29;100.00
33155;BME280;19511;42.682;23.332;2022-07-03T18:56:39;95328.59;;;24.97;100.00
33155;BME280;19511;42.682;23.332;2022-07-03T18:59:16;95337.19;;;24.76;100.00
33155;BME280;19511;42.682;23.332;2022-07-03T19:01:43;95332.00;;;24.74;100.00
33155;BME280;19511;42.682;23.332;2022-07-03T19:06:37;95336.88;;;24.48;100.00
33155;BME280;19511;42.682;23.332;2022-07-03T19:09:13;95333.50;;;24.43;100.00
33155;BME280;19511;42.682;23.332;2022-07-03T19:11:40;95336.56;;;24.66;100.00
33155;BME280;19511;42.682;23.332;2022-07-03T19:14:12;95343.16;;;24.84;100.00
33155;BME280;19511;42.682;23.332;2022-07-03T19:16:41;95335.00;;;24.91;100.00
33155;BME280;19511;42.682;23.332;2022-07-03T19:19:07;95340.31;;;24.84;100.00
33155;BME280;19511;42.682;23.332;2022-07-03T19:21:33;95348.25;;;24.80;100.00
33155;BME280;19511;42.682;23.332;2022-07-03T19:23:58;95348.81;;;24.84;100.00
33155;BME280;19511;42.682;23.332;2022-07-03T19:26:23;95348.53;;;24.82;100.00
33155;BME280;19511;42.682;23.332;2022-07-03T19:28:48;95342.47;;;24.68;100.00
33155;BME280;19511;42.682;23.332;2022-07-03T19:31:16;95348.25;;;24.53;100.00
33155;BME280;19511;42.682;23.332;2022-07-03T19:33:41;95343.78;;;24.46;100.00
33155;BME280;19511;42.682;23.332;2022-07-03T19:36:07;95352.72;;;24.39;100.00
33155;BME280;19511;42.682;23.332;2022-07-03T19:38:32;95343.97;;;24.37;100.00
33155;BME280;19511;42.682;23.332;2022-07-03T19:40:58;95352.03;;;24.24;100.00
33155;BME280;19511;42.682;23.332;2022-07-03T19:43:23;95354.97;;;24.35;100.00
33155;BME280;19511;42.682;23.332;2022-07-03T19:45:49;95357.41;;;24.22;100.00
33155;BME280;19511;42.682;23.332;2022-07-03T19:48:14;95347.09;;;24.19;100.00
33155;BME280;19511;42.682;23.332;2022-07-03T19:50:39;95340.69;;;23.98;100.00
33155;BME280;19511;42.682;23.332;2022-07-03T19:53:09;95350.22;;;24.00;100.00
33155;BME280;19511;42.682;23.332;2022-07-03T19:55:34;95349.38;;;23.94;100.00
33155;BME280;19511;42.682;23.332;2022-07-03T19:58:03;95352.88;;;23.89;100.00
33155;BME280;19511;42.682;23.332;2022-07-03T20:00:32;95342.84;;;23.88;100.00
33155;BME280;19511;42.682;23.332;2022-07-03T20:02:58;95343.28;;;23.80;100.00
33155;BME280;19511;42.682;23.332;2022-07-03T20:05:25;95345.81;;;23.78;100.00
33155;BME280;19511;42.682;23.332;2022-07-03T20:07:51;95347.66;;;23.81;100.00
33155;BME280;19511;42.682;23.332;2022-07-03T20:10:16;95347.66;;;23.81;100.00
33155;BME280;19511;42.682;23.332;2022-07-03T20:12:42;95350.28;;;23.85;100.00
33155;BME280;19511;42.682;23.332;2022-07-03T20:15:07;95347.38;;;23.79;100.00
33155;BME280;19511;42.682;23.332;2022-07-03T20:17:33;95355.97;;;23.70;100.00
33155;BME280;19511;42.682;23.332;2022-07-03T20:19:58;95360.06;;;23.69;100.00
33155;BME280;19511;42.682;23.332;2022-07-03T20:22:24;95356.97;;;23.67;100.00
33155;BME280;19511;42.682;23.332;2022-07-03T20:24:49;95364.19;;;23.68;100.00
33155;BME280;19511;42.682;23.332;2022-07-03T20:27:14;95354.72;;;23.71;100.00
33155;BME280;19511;42.682;23.332;2022-07-03T20:29:41;95358.94;;;23.61;100.00
33155;BME280;19511;42.682;23.332;2022-07-03T20:32:08;95352.94;;;23.53;100.00
33155;BME280;19511;42.682;23.332;2022-07-03T20:34:34;95358.22;;;23.45;100.00
33155;BME280;19511;42.682;23.332;2022-07-03T20:37:00;95360.75;;;23.43;100.00
33155;BME280;19511;42.682;23.332;2022-07-03T20:39:26;95359.19;;;23.42;100.00
33155;BME280;19511;42.682;23.332;2022-07-03T20:41:52;95353.84;;;23.44;100.00
33155;BME280;19511;42.682;23.332;2022-07-03T20:44:18;95364.72;;;23.52;100.00
33155;BME280;19511;42.682;23.332;2022-07-03T20:46:43;95353.63;;;23.48;100.00
33155;BME280;19511;42.682;23.332;2022-07-03T20:49:09;95362.66;;;23.52;100.00
33155;BME280;19511;42.682;23.332;2022-07-03T20:51:34;95367.44;;;23.46;100.00
33155;BME280;19511;42.682;23.332;2022-07-03T20:53:59;95368.47;;;23.28;100.00
33155;BME280;19511;42.682;23.332;2022-07-03T20:56:25;95372.84;;;23.29;100.00
33155;BME280;19511;42.682;23.332;2022-07-03T20:58:50;95374.63;;;23.26;100.00
33155;BME280;19511;42.682;23.332;2022-07-03T21:01:16;95381.41;;;23.20;100.00
33155;BME280;19511;42.682;23.332;2022-07-03T21:03:41;95383.47;;;23.19;100.00
33155;BME280;19511;42.682;23.332;2022-07-03T21:06:06;95384.53;;;23.22;100.00
33155;BME280;19511;42.682;23.332;2022-07-03T21:08:47;95384.53;;;23.22;100.00
33155;BME280;19511;42.682;23.332;2022-07-03T21:11:13;95386.38;;;23.25;100.00
33155;BME280;19511;42.682;23.332;2022-07-03T21:14:00;95390.09;;;23.16;100.00
33155;BME280;19511;42.682;23.332;2022-07-03T21:16:26;95401.56;;;23.12;100.00
33155;BME280;19511;42.682;23.332;2022-07-03T21:18:55;95406.13;;;22.95;100.00
33155;BME280;19511;42.682;23.332;2022-07-03T21:21:20;95405.38;;;22.94;100.00
33155;BME280;19511;42.682;23.332;2022-07-03T21:23:47;95398.84;;;22.88;100.00
33155;BME280;19511;42.682;23.332;2022-07-03T21:26:12;95406.81;;;22.90;100.00
33155;BME280;19511;42.682;23.332;2022-07-03T21:28:37;95401.75;;;22.94;100.00
33155;BME280;19511;42.682;23.332;2022-07-03T21:31:02;95404.56;;;22.94;100.00
33155;BME280;19511;42.682;23.332;2022-07-03T21:33:28;95404.97;;;22.87;100.00
33155;BME280;19511;42.682;23.332;2022-07-03T21:35:54;95410.22;;;22.79;100.00
33155;BME280;19511;42.682;23.332;2022-07-03T21:38:19;95409.63;;;22.60;100.00
33155;BME280;19511;42.682;23.332;2022-07-03T21:40:45;95401.84;;;22.55;100.00
33155;BME280;19511;42.682;23.332;2022-07-03T21:43:10;95410.38;;;22.45;100.00
33155;BME280;19511;42.682;23.332;2022-07-03T21:45:35;95407.88;;;22.47;100.00
33155;BME280;19511;42.682;23.332;2022-07-03T21:48:01;95412.63;;;22.56;100.00
33155;BME280;19511;42.682;23.332;2022-07-03T21:50:26;95416.31;;;22.62;100.00
33155;BME280;19511;42.682;23.332;2022-07-03T21:52:51;95415.47;;;22.71;100.00
33155;BME280;19511;42.682;23.332;2022-07-03T21:55:17;95410.50;;;22.81;100.00
33155;BME280;19511;42.682;23.332;2022-07-03T21:57:43;95406.53;;;22.88;100.00
33155;BME280;19511;42.682;23.332;2022-07-03T22:00:08;95401.44;;;22.92;100.00
33155;BME280;19511;42.682;23.332;2022-07-03T22:02:34;95401.94;;;22.90;100.00
33155;BME280;19511;42.682;23.332;2022-07-03T22:04:59;95403.63;;;22.97;100.00
33155;BME280;19511;42.682;23.332;2022-07-03T22:07:24;95404.56;;;22.94;100.00
33155;BME280;19511;42.682;23.332;2022-07-03T22:09:49;95401.44;;;22.92;100.00
33155;BME280;19511;42.682;23.332;2022-07-03T22:12:15;95397.88;;;22.91;100.00
33155;BME280;19511;42.682;23.332;2022-07-03T22:15:03;95397.09;;;22.91;100.00
33155;BME280;19511;42.682;23.332;2022-07-03T22:17:32;95399.91;;;22.91;100.00
33155;BME280;19511;42.682;23.332;2022-07-03T22:19:58;95401.44;;;22.92;100.00
33155;BME280;19511;42.682;23.332;2022-07-03T22:22:24;95396.03;;;22.88;100.00
33155;BME280;19511;42.682;23.332;2022-07-03T22:24:49;95390.00;;;22.80;100.00
33155;BME280;19511;42.682;23.332;2022-07-03T22:27:15;95381.75;;;22.77;100.00
33155;BME280;19511;42.682;23.332;2022-07-03T22:29:40;95387.56;;;22.73;100.00
33155;BME280;19511;42.682;23.332;2022-07-03T22:32:05;95392.13;;;22.71;100.00
33155;BME280;19511;42.682;23.332;2022-07-03T22:34:31;95390.19;;;22.62;100.00
33155;BME280;19511;42.682;23.332;2022-07-03T22:36:57;95394.44;;;22.57;100.00
33155;BME280;19511;42.682;23.332;2022-07-03T22:39:22;95388.41;;;22.49;100.00
33155;BME280;19511;42.682;23.332;2022-07-03T22:41:51;95391.41;;;22.46;100.00
33155;BME280;19511;42.682;23.332;2022-07-03T22:44:17;95391.59;;;22.42;100.00
33155;BME280;19511;42.682;23.332;2022-07-03T22:46:42;95394.00;;;22.34;100.00
33155;BME280;19511;42.682;23.332;2022-07-03T22:49:08;95389.50;;;22.28;100.00
33155;BME280;19511;42.682;23.332;2022-07-03T22:51:33;95383.88;;;22.28;100.00
33155;BME280;19511;42.682;23.332;2022-07-03T22:53:59;95386.69;;;22.28;100.00
33155;BME280;19511;42.682;23.332;2022-07-03T22:56:24;95381.72;;;22.23;100.00
33155;BME280;19511;42.682;23.332;2022-07-03T22:58:49;95381.72;;;22.23;100.00
33155;BME280;19511;42.682;23.332;2022-07-03T23:01:14;95385.22;;;22.17;100.00
33155;BME280;19511;42.682;23.332;2022-07-03T23:06:13;95381.19;;;22.09;100.00
33155;BME280;19511;42.682;23.332;2022-07-03T23:08:38;95376.84;;;22.08;100.00
33155;BME280;19511;42.682;23.332;2022-07-03T23:11:03;95387.88;;;21.97;100.00
33155;BME280;19511;42.682;23.332;2022-07-03T23:13:29;95389.81;;;21.91;100.00
33155;BME280;19511;42.682;23.332;2022-07-03T23:15:54;95381.22;;;21.85;100.00
33155;BME280;19511;42.682;23.332;2022-07-03T23:18:19;95392.31;;;21.89;100.00
33155;BME280;19511;42.682;23.332;2022-07-03T23:20:45;95379.47;;;21.88;100.00
33155;BME280;19511;42.682;23.332;2022-07-03T23:23:10;95378.31;;;21.79;100.00
33155;BME280;19511;42.682;23.332;2022-07-03T23:25:35;95389.00;;;21.66;100.00
33155;BME280;19511;42.682;23.332;2022-07-03T23:28:01;95379.78;;;21.65;100.00
33155;BME280;19511;42.682;23.332;2022-07-03T23:30:26;95373.56;;;21.61;100.00
33155;BME280;19511;42.682;23.332;2022-07-03T23:32:51;95377.06;;;21.56;100.00
33155;BME280;19511;42.682;23.332;2022-07-03T23:35:17;95370.00;;;21.51;100.00
33155;BME280;19511;42.682;23.332;2022-07-03T23:37:42;95380.78;;;21.53;100.00
33155;BME280;19511;42.682;23.332;2022-07-03T23:40:07;95389.22;;;21.53;100.00
33155;BME280;19511;42.682;23.332;2022-07-03T23:42:33;95377.47;;;21.54;100.00
33155;BME280;19511;42.682;23.332;2022-07-03T23:44:58;95384.84;;;21.52;100.00
33155;BME280;19511;42.682;23.332;2022-07-03T23:47:24;95382.22;;;21.48;100.00
33155;BME280;19511;42.682;23.332;2022-07-03T23:49:49;95385.66;;;21.43;100.00
33155;BME280;19511;42.682;23.332;2022-07-03T23:52:33;95391.28;;;21.43;100.00
33155;BME280;19511;42.682;23.332;2022-07-03T23:55:00;95389.75;;;21.42;100.00
33155;BME280;19511;42.682;23.332;2022-07-03T23:57:25;95392.91;;;21.35;100.00
33155;BME280;19511;42.682;23.332;2022-07-03T23:59:50;95393.41;;;21.33;100.00
